sensor_id;sensor_type;location;lat;lon;timestamp;P1;durP1;ratioP1;P2;durP2;ratioP2
51732;SDS011;39139;53.144;6.244;2023-09-30T00:01:21;12.55;;;4.30;;
51732;SDS011;39139;53.144;6.244;2023-09-30T00:03:49;15.57;;;4.50;;
51732;SDS011;39139;53.144;6.244;2023-09-30T00:06:15;16.42;;;4.00;;
51732;SDS011;39139;53.144;6.244;2023-09-30T00:08:41;15.25;;;4.38;;
51732;SDS011;39139;53.144;6.244;2023-09-30T00:11:08;19.20;;;4.25;;
51732;SDS011;39139;53.144;6.244;2023-09-30T00:13:34;11.75;;;3.88;;
51732;SDS011;39139;53.144;6.244;2023-09-30T00:16:00;16.33;;;4.13;;
51732;SDS011;39139;53.144;6.244;2023-09-30T00:18:26;12.77;;;3.80;;
51732;SDS011;39139;53.144;6.244;2023-09-30T00:20:52;15.35;;;4.15;;
51732;SDS011;39139;53.144;6.244;2023-09-30T00:23:18;18.00;;;4.32;;
51732;SDS011;39139;53.144;6.244;2023-09-30T00:25:46;14.20;;;4.63;;
51732;SDS011;39139;53.144;6.244;2023-09-30T00:28:13;10.52;;;5.10;;
51732;SDS011;39139;53.144;6.244;2023-09-30T00:30:39;19.23;;;5.40;;
51732;SDS011;39139;53.144;6.244;2023-09-30T00:33:05;23.90;;;5.00;;
51732;SDS011;39139;53.144;6.244;2023-09-30T00:35:32;16.58;;;5.43;;
51732;SDS011;39139;53.144;6.244;2023-09-30T00:37:57;14.60;;;4.93;;
51732;SDS011;39139;53.144;6.244;2023-09-30T00:40:23;13.23;;;5.07;;
51732;SDS011;39139;53.144;6.244;2023-09-30T00:42:49;20.15;;;4.35;;
51732;SDS011;39139;53.144;6.244;2023-09-30T00:45:14;22.00;;;4.82;;
51732;SDS011;39139;53.144;6.244;2023-09-30T00:47:40;16.85;;;4.90;;
51732;SDS011;39139;53.144;6.244;2023-09-30T00:50:06;19.00;;;5.00;;
51732;SDS011;39139;53.144;6.244;2023-09-30T00:52:33;17.45;;;5.30;;
51732;SDS011;39139;53.144;6.244;2023-09-30T00:55:01;24.30;;;5.22;;
51732;SDS011;39139;53.144;6.244;2023-09-30T00:57:31;12.63;;;4.50;;
51732;SDS011;39139;53.144;6.244;2023-09-30T00:59:57;13.70;;;5.43;;
51732;SDS011;39139;53.144;6.244;2023-09-30T01:02:23;14.00;;;5.03;;
51732;SDS011;39139;53.144;6.244;2023-09-30T01:04:49;12.40;;;4.45;;
51732;SDS011;39139;53.144;6.244;2023-09-30T01:07:15;11.02;;;4.68;;
51732;SDS011;39139;53.144;6.244;2023-09-30T01:09:41;14.05;;;4.93;;
51732;SDS011;39139;53.144;6.244;2023-09-30T01:12:07;9.98;;;4.78;;
51732;SDS011;39139;53.144;6.244;2023-09-30T01:14:34;17.25;;;5.75;;
51732;SDS011;39139;53.144;6.244;2023-09-30T01:17:00;16.90;;;4.80;;
51732;SDS011;39139;53.144;6.244;2023-09-30T01:19:26;14.95;;;4.57;;
51732;SDS011;39139;53.144;6.244;2023-09-30T01:21:58;17.40;;;4.93;;
51732;SDS011;39139;53.144;6.244;2023-09-30T01:24:28;17.45;;;4.75;;
51732;SDS011;39139;53.144;6.244;2023-09-30T01:26:57;11.70;;;5.03;;
51732;SDS011;39139;53.144;6.244;2023-09-30T01:29:23;18.07;;;5.17;;
51732;SDS011;39139;53.144;6.244;2023-09-30T01:31:51;12.80;;;4.82;;
51732;SDS011;39139;53.144;6.244;2023-09-30T01:34:17;16.33;;;4.68;;
51732;SDS011;39139;53.144;6.244;2023-09-30T01:36:43;13.73;;;4.68;;
51732;SDS011;39139;53.144;6.244;2023-09-30T01:39:09;11.40;;;5.10;;
51732;SDS011;39139;53.144;6.244;2023-09-30T01:41:36;10.32;;;4.18;;
51732;SDS011;39139;53.144;6.244;2023-09-30T01:44:06;11.23;;;4.55;;
51732;SDS011;39139;53.144;6.244;2023-09-30T01:46:32;13.32;;;4.68;;
51732;SDS011;39139;53.144;6.244;2023-09-30T01:48:58;14.50;;;4.38;;
51732;SDS011;39139;53.144;6.244;2023-09-30T01:51:24;16.17;;;4.60;;
51732;SDS011;39139;53.144;6.244;2023-09-30T01:53:49;12.07;;;4.95;;
51732;SDS011;39139;53.144;6.244;2023-09-30T01:56:15;12.23;;;5.20;;
51732;SDS011;39139;53.144;6.244;2023-09-30T01:58:41;16.38;;;4.72;;
51732;SDS011;39139;53.144;6.244;2023-09-30T02:01:07;13.35;;;4.25;;
51732;SDS011;39139;53.144;6.244;2023-09-30T02:03:34;19.80;;;4.70;;
51732;SDS011;39139;53.144;6.244;2023-09-30T02:05:59;15.32;;;4.25;;
51732;SDS011;39139;53.144;6.244;2023-09-30T02:08:25;13.30;;;4.15;;
51732;SDS011;39139;53.144;6.244;2023-09-30T02:10:51;20.25;;;4.82;;
51732;SDS011;39139;53.144;6.244;2023-09-30T02:13:17;16.35;;;4.78;;
51732;SDS011;39139;53.144;6.244;2023-09-30T02:15:43;18.63;;;4.68;;
51732;SDS011;39139;53.144;6.244;2023-09-30T02:18:09;19.83;;;4.32;;
51732;SDS011;39139;53.144;6.244;2023-09-30T02:20:35;14.18;;;4.10;;
51732;SDS011;39139;53.144;6.244;2023-09-30T02:23:13;18.02;;;4.13;;
51732;SDS011;39139;53.144;6.244;2023-09-30T02:25:42;10.65;;;4.22;;
51732;SDS011;39139;53.144;6.244;2023-09-30T02:28:09;12.45;;;3.95;;
51732;SDS011;39139;53.144;6.244;2023-09-30T02:30:35;18.05;;;4.35;;
51732;SDS011;39139;53.144;6.244;2023-09-30T02:33:01;11.02;;;4.07;;
51732;SDS011;39139;53.144;6.244;2023-09-30T02:35:28;14.73;;;3.85;;
51732;SDS011;39139;53.144;6.244;2023-09-30T02:37:54;15.57;;;3.88;;
51732;SDS011;39139;53.144;6.244;2023-09-30T02:40:20;14.77;;;3.92;;
51732;SDS011;39139;53.144;6.244;2023-09-30T02:42:46;16.60;;;3.83;;
51732;SDS011;39139;53.144;6.244;2023-09-30T02:45:14;11.00;;;3.85;;
51732;SDS011;39139;53.144;6.244;2023-09-30T02:47:42;11.38;;;4.03;;
51732;SDS011;39139;53.144;6.244;2023-09-30T02:50:08;10.63;;;3.65;;
51732;SDS011;39139;53.144;6.244;2023-09-30T02:52:38;17.77;;;3.55;;
51732;SDS011;39139;53.144;6.244;2023-09-30T02:55:06;14.95;;;3.90;;
51732;SDS011;39139;53.144;6.244;2023-09-30T02:57:32;11.68;;;4.10;;
51732;SDS011;39139;53.144;6.244;2023-09-30T02:59:58;13.90;;;3.78;;
51732;SDS011;39139;53.144;6.244;2023-09-30T03:02:25;12.75;;;4.45;;
51732;SDS011;39139;53.144;6.244;2023-09-30T03:04:51;16.20;;;3.75;;
51732;SDS011;39139;53.144;6.244;2023-09-30T03:07:20;9.45;;;3.95;;
51732;SDS011;39139;53.144;6.244;2023-09-30T03:09:46;10.85;;;3.78;;
51732;SDS011;39139;53.144;6.244;2023-09-30T03:12:12;10.88;;;4.38;;
51732;SDS011;39139;53.144;6.244;2023-09-30T03:14:37;16.45;;;3.85;;
51732;SDS011;39139;53.144;6.244;2023-09-30T03:17:03;10.90;;;3.92;;
51732;SDS011;39139;53.144;6.244;2023-09-30T03:19:29;14.60;;;4.18;;
51732;SDS011;39139;53.144;6.244;2023-09-30T03:21:54;9.73;;;4.18;;
51732;SDS011;39139;53.144;6.244;2023-09-30T03:24:20;11.82;;;3.55;;
51732;SDS011;39139;53.144;6.244;2023-09-30T03:26:46;12.18;;;3.75;;
51732;SDS011;39139;53.144;6.244;2023-09-30T03:29:12;16.45;;;4.18;;
51732;SDS011;39139;53.144;6.244;2023-09-30T03:31:38;14.85;;;3.95;;
51732;SDS011;39139;53.144;6.244;2023-09-30T03:34:05;14.05;;;3.30;;
51732;SDS011;39139;53.144;6.244;2023-09-30T03:36:30;9.27;;;3.88;;
51732;SDS011;39139;53.144;6.244;2023-09-30T03:38:56;13.38;;;3.92;;
51732;SDS011;39139;53.144;6.244;2023-09-30T03:41:30;11.63;;;3.50;;
51732;SDS011;39139;53.144;6.244;2023-09-30T03:43:57;15.90;;;4.10;;
51732;SDS011;39139;53.144;6.244;2023-09-30T03:46:23;15.88;;;4.00;;
51732;SDS011;39139;53.144;6.244;2023-09-30T03:48:50;17.58;;;3.75;;
51732;SDS011;39139;53.144;6.244;2023-09-30T03:51:16;11.43;;;3.40;;
51732;SDS011;39139;53.144;6.244;2023-09-30T03:53:42;11.48;;;4.10;;
51732;SDS011;39139;53.144;6.244;2023-09-30T03:56:09;13.57;;;3.75;;
51732;SDS011;39139;53.144;6.244;2023-09-30T03:58:41;10.73;;;3.67;;
51732;SDS011;39139;53.144;6.244;2023-09-30T04:01:11;15.15;;;4.00;;
51732;SDS011;39139;53.144;6.244;2023-09-30T04:03:40;18.02;;;4.20;;
51732;SDS011;39139;53.144;6.244;2023-09-30T04:06:06;9.90;;;3.47;;
51732;SDS011;39139;53.144;6.244;2023-09-30T04:08:32;10.27;;;4.10;;
51732;SDS011;39139;53.144;6.244;2023-09-30T04:10:59;14.40;;;4.85;;
51732;SDS011;39139;53.144;6.244;2023-09-30T04:13:25;15.55;;;4.22;;
51732;SDS011;39139;53.144;6.244;2023-09-30T04:15:52;17.63;;;5.43;;
51732;SDS011;39139;53.144;6.244;2023-09-30T04:18:18;11.25;;;4.00;;
51732;SDS011;39139;53.144;6.244;2023-09-30T04:20:45;13.55;;;4.68;;
51732;SDS011;39139;53.144;6.244;2023-09-30T04:23:12;20.98;;;5.22;;
51732;SDS011;39139;53.144;6.244;2023-09-30T04:25:38;14.38;;;4.88;;
51732;SDS011;39139;53.144;6.244;2023-09-30T04:28:05;9.98;;;5.07;;
51732;SDS011;39139;53.144;6.244;2023-09-30T04:30:32;18.17;;;5.50;;
51732;SDS011;39139;53.144;6.244;2023-09-30T04:32:58;15.95;;;4.68;;
51732;SDS011;39139;53.144;6.244;2023-09-30T04:35:24;10.70;;;4.93;;
51732;SDS011;39139;53.144;6.244;2023-09-30T04:37:50;15.73;;;4.97;;
51732;SDS011;39139;53.144;6.244;2023-09-30T04:40:16;11.50;;;5.38;;
51732;SDS011;39139;53.144;6.244;2023-09-30T04:42:45;12.77;;;4.28;;
51732;SDS011;39139;53.144;6.244;2023-09-30T04:47:45;13.05;;;5.05;;
51732;SDS011;39139;53.144;6.244;2023-09-30T04:50:11;11.18;;;5.68;;
51732;SDS011;39139;53.144;6.244;2023-09-30T04:52:38;12.32;;;4.60;;
51732;SDS011;39139;53.144;6.244;2023-09-30T04:55:05;13.95;;;4.90;;
51732;SDS011;39139;53.144;6.244;2023-09-30T04:57:31;20.02;;;5.10;;
51732;SDS011;39139;53.144;6.244;2023-09-30T04:59:58;11.27;;;5.47;;
51732;SDS011;39139;53.144;6.244;2023-09-30T05:02:24;13.15;;;6.20;;
51732;SDS011;39139;53.144;6.244;2023-09-30T05:04:50;9.00;;;5.45;;
51732;SDS011;39139;53.144;6.244;2023-09-30T05:07:17;13.05;;;5.38;;
51732;SDS011;39139;53.144;6.244;2023-09-30T05:09:43;23.02;;;6.85;;
51732;SDS011;39139;53.144;6.244;2023-09-30T05:12:09;17.10;;;6.50;;
51732;SDS011;39139;53.144;6.244;2023-09-30T05:14:36;15.52;;;6.18;;
51732;SDS011;39139;53.144;6.244;2023-09-30T05:17:04;16.20;;;5.78;;
51732;SDS011;39139;53.144;6.244;2023-09-30T05:19:31;13.98;;;6.60;;
51732;SDS011;39139;53.144;6.244;2023-09-30T05:22:01;12.25;;;7.28;;
51732;SDS011;39139;53.144;6.244;2023-09-30T05:24:28;20.25;;;7.40;;
51732;SDS011;39139;53.144;6.244;2023-09-30T05:26:54;11.20;;;6.45;;
51732;SDS011;39139;53.144;6.244;2023-09-30T05:29:20;12.38;;;6.32;;
51732;SDS011;39139;53.144;6.244;2023-09-30T05:31:46;19.80;;;7.82;;
51732;SDS011;39139;53.144;6.244;2023-09-30T05:34:12;21.17;;;8.00;;
51732;SDS011;39139;53.144;6.244;2023-09-30T05:36:37;21.10;;;8.13;;
51732;SDS011;39139;53.144;6.244;2023-09-30T05:39:03;22.02;;;8.70;;
51732;SDS011;39139;53.144;6.244;2023-09-30T05:41:30;18.17;;;9.15;;
51732;SDS011;39139;53.144;6.244;2023-09-30T05:43:56;21.92;;;9.05;;
51732;SDS011;39139;53.144;6.244;2023-09-30T05:46:22;17.75;;;9.25;;
51732;SDS011;39139;53.144;6.244;2023-09-30T05:48:48;26.17;;;10.40;;
51732;SDS011;39139;53.144;6.244;2023-09-30T05:51:13;21.17;;;9.35;;
51732;SDS011;39139;53.144;6.244;2023-09-30T05:53:40;21.73;;;8.63;;
51732;SDS011;39139;53.144;6.244;2023-09-30T05:56:06;29.73;;;10.13;;
51732;SDS011;39139;53.144;6.244;2023-09-30T05:58:33;23.13;;;9.48;;
51732;SDS011;39139;53.144;6.244;2023-09-30T06:00:58;26.92;;;11.40;;
51732;SDS011;39139;53.144;6.244;2023-09-30T06:03:25;19.48;;;10.32;;
51732;SDS011;39139;53.144;6.244;2023-09-30T06:05:54;26.47;;;10.47;;
51732;SDS011;39139;53.144;6.244;2023-09-30T06:08:21;24.70;;;10.48;;
51732;SDS011;39139;53.144;6.244;2023-09-30T06:10:46;21.33;;;10.95;;
51732;SDS011;39139;53.144;6.244;2023-09-30T06:13:12;17.40;;;9.45;;
51732;SDS011;39139;53.144;6.244;2023-09-30T06:15:41;21.63;;;11.27;;
51732;SDS011;39139;53.144;6.244;2023-09-30T06:18:07;20.52;;;10.70;;
51732;SDS011;39139;53.144;6.244;2023-09-30T06:20:34;29.77;;;12.43;;
51732;SDS011;39139;53.144;6.244;2023-09-30T06:23:01;23.15;;;10.07;;
51732;SDS011;39139;53.144;6.244;2023-09-30T06:25:26;26.25;;;10.32;;
51732;SDS011;39139;53.144;6.244;2023-09-30T06:27:53;30.33;;;10.18;;
51732;SDS011;39139;53.144;6.244;2023-09-30T06:32:54;20.92;;;9.63;;
51732;SDS011;39139;53.144;6.244;2023-09-30T06:35:21;21.95;;;9.88;;
51732;SDS011;39139;53.144;6.244;2023-09-30T06:37:47;18.80;;;10.15;;
51732;SDS011;39139;53.144;6.244;2023-09-30T06:40:12;23.15;;;10.88;;
51732;SDS011;39139;53.144;6.244;2023-09-30T06:42:38;17.48;;;10.35;;
51732;SDS011;39139;53.144;6.244;2023-09-30T06:45:05;27.38;;;11.15;;
51732;SDS011;39139;53.144;6.244;2023-09-30T06:47:32;22.92;;;11.95;;
51732;SDS011;39139;53.144;6.244;2023-09-30T06:50:01;27.90;;;12.05;;
51732;SDS011;39139;53.144;6.244;2023-09-30T06:52:33;22.00;;;11.35;;
51732;SDS011;39139;53.144;6.244;2023-09-30T06:55:00;23.73;;;12.23;;
51732;SDS011;39139;53.144;6.244;2023-09-30T06:57:29;20.50;;;11.40;;
51732;SDS011;39139;53.144;6.244;2023-09-30T06:59:56;18.42;;;11.48;;
51732;SDS011;39139;53.144;6.244;2023-09-30T07:02:22;23.45;;;11.23;;
51732;SDS011;39139;53.144;6.244;2023-09-30T07:04:49;21.92;;;11.30;;
51732;SDS011;39139;53.144;6.244;2023-09-30T07:07:14;24.27;;;12.68;;
51732;SDS011;39139;53.144;6.244;2023-09-30T07:09:40;23.80;;;11.77;;
51732;SDS011;39139;53.144;6.244;2023-09-30T07:12:07;24.25;;;12.05;;
51732;SDS011;39139;53.144;6.244;2023-09-30T07:14:33;17.45;;;11.20;;
51732;SDS011;39139;53.144;6.244;2023-09-30T07:16:59;24.02;;;13.63;;
51732;SDS011;39139;53.144;6.244;2023-09-30T07:19:24;25.63;;;12.68;;
51732;SDS011;39139;53.144;6.244;2023-09-30T07:21:50;24.88;;;11.38;;
51732;SDS011;39139;53.144;6.244;2023-09-30T07:24:15;24.15;;;11.52;;
51732;SDS011;39139;53.144;6.244;2023-09-30T07:26:41;25.45;;;13.48;;
51732;SDS011;39139;53.144;6.244;2023-09-30T07:29:08;26.50;;;13.07;;
51732;SDS011;39139;53.144;6.244;2023-09-30T07:31:37;18.80;;;12.02;;
51732;SDS011;39139;53.144;6.244;2023-09-30T07:34:03;25.13;;;12.37;;
51732;SDS011;39139;53.144;6.244;2023-09-30T07:36:28;27.15;;;12.75;;
51732;SDS011;39139;53.144;6.244;2023-09-30T07:38:54;25.05;;;13.02;;
51732;SDS011;39139;53.144;6.244;2023-09-30T07:41:20;18.50;;;12.25;;
51732;SDS011;39139;53.144;6.244;2023-09-30T07:43:46;25.98;;;13.10;;
51732;SDS011;39139;53.144;6.244;2023-09-30T07:46:12;26.98;;;12.50;;
51732;SDS011;39139;53.144;6.244;2023-09-30T07:48:37;20.45;;;13.00;;
51732;SDS011;39139;53.144;6.244;2023-09-30T07:51:04;22.15;;;12.68;;
51732;SDS011;39139;53.144;6.244;2023-09-30T07:53:34;22.95;;;12.93;;
51732;SDS011;39139;53.144;6.244;2023-09-30T07:56:00;19.27;;;12.07;;
51732;SDS011;39139;53.144;6.244;2023-09-30T07:58:25;22.02;;;12.02;;
51732;SDS011;39139;53.144;6.244;2023-09-30T08:00:51;20.10;;;11.77;;
51732;SDS011;39139;53.144;6.244;2023-09-30T08:03:17;20.27;;;11.38;;
51732;SDS011;39139;53.144;6.244;2023-09-30T08:05:42;19.10;;;11.18;;
51732;SDS011;39139;53.144;6.244;2023-09-30T08:08:08;24.20;;;11.07;;
51732;SDS011;39139;53.144;6.244;2023-09-30T08:10:34;19.67;;;11.13;;
51732;SDS011;39139;53.144;6.244;2023-09-30T08:13:01;18.45;;;9.27;;
51732;SDS011;39139;53.144;6.244;2023-09-30T08:15:27;16.25;;;8.68;;
51732;SDS011;39139;53.144;6.244;2023-09-30T08:17:53;14.98;;;8.13;;
51732;SDS011;39139;53.144;6.244;2023-09-30T08:20:19;15.00;;;8.68;;
51732;SDS011;39139;53.144;6.244;2023-09-30T08:22:44;14.95;;;6.72;;
51732;SDS011;39139;53.144;6.244;2023-09-30T08:25:10;15.82;;;7.07;;
51732;SDS011;39139;53.144;6.244;2023-09-30T08:27:36;16.20;;;7.03;;
51732;SDS011;39139;53.144;6.244;2023-09-30T08:30:03;12.80;;;6.35;;
51732;SDS011;39139;53.144;6.244;2023-09-30T08:32:31;13.90;;;7.18;;
51732;SDS011;39139;53.144;6.244;2023-09-30T08:35:00;12.13;;;6.25;;
51732;SDS011;39139;53.144;6.244;2023-09-30T08:37:29;11.73;;;6.40;;
51732;SDS011;39139;53.144;6.244;2023-09-30T08:39:56;12.38;;;6.03;;
51732;SDS011;39139;53.144;6.244;2023-09-30T08:42:22;9.65;;;5.88;;
51732;SDS011;39139;53.144;6.244;2023-09-30T08:44:51;12.43;;;5.75;;
51732;SDS011;39139;53.144;6.244;2023-09-30T08:47:21;8.07;;;4.97;;
51732;SDS011;39139;53.144;6.244;2023-09-30T08:49:50;13.30;;;5.50;;
51732;SDS011;39139;53.144;6.244;2023-09-30T08:52:21;13.82;;;5.97;;
51732;SDS011;39139;53.144;6.244;2023-09-30T08:54:47;13.15;;;5.22;;
51732;SDS011;39139;53.144;6.244;2023-09-30T08:57:13;12.93;;;5.68;;
51732;SDS011;39139;53.144;6.244;2023-09-30T08:59:41;14.23;;;4.93;;
51732;SDS011;39139;53.144;6.244;2023-09-30T09:02:09;8.57;;;4.80;;
51732;SDS011;39139;53.144;6.244;2023-09-30T09:04:38;9.30;;;4.72;;
51732;SDS011;39139;53.144;6.244;2023-09-30T09:07:04;11.23;;;4.30;;
51732;SDS011;39139;53.144;6.244;2023-09-30T09:09:30;17.80;;;5.65;;
51732;SDS011;39139;53.144;6.244;2023-09-30T09:11:57;9.00;;;4.82;;
51732;SDS011;39139;53.144;6.244;2023-09-30T09:14:39;14.18;;;5.72;;
51732;SDS011;39139;53.144;6.244;2023-09-30T09:17:11;10.20;;;4.75;;
51732;SDS011;39139;53.144;6.244;2023-09-30T09:19:37;13.00;;;5.10;;
51732;SDS011;39139;53.144;6.244;2023-09-30T09:22:03;9.38;;;3.95;;
51732;SDS011;39139;53.144;6.244;2023-09-30T09:24:35;6.45;;;3.67;;
51732;SDS011;39139;53.144;6.244;2023-09-30T09:27:04;8.52;;;4.40;;
51732;SDS011;39139;53.144;6.244;2023-09-30T09:29:31;13.65;;;4.32;;
51732;SDS011;39139;53.144;6.244;2023-09-30T09:34:34;11.23;;;3.97;;
51732;SDS011;39139;53.144;6.244;2023-09-30T09:37:00;14.35;;;4.65;;
51732;SDS011;39139;53.144;6.244;2023-09-30T09:39:54;9.73;;;3.53;;
51732;SDS011;39139;53.144;6.244;2023-09-30T09:42:28;5.40;;;2.83;;
51732;SDS011;39139;53.144;6.244;2023-09-30T09:44:57;9.18;;;3.22;;
51732;SDS011;39139;53.144;6.244;2023-09-30T09:47:29;12.32;;;3.22;;
51732;SDS011;39139;53.144;6.244;2023-09-30T09:49:57;11.45;;;2.50;;
51732;SDS011;39139;53.144;6.244;2023-09-30T09:52:23;8.98;;;3.55;;
51732;SDS011;39139;53.144;6.244;2023-09-30T09:54:50;10.55;;;3.10;;
51732;SDS011;39139;53.144;6.244;2023-09-30T09:57:17;13.50;;;3.13;;
51732;SDS011;39139;53.144;6.244;2023-09-30T09:59:44;9.63;;;2.30;;
51732;SDS011;39139;53.144;6.244;2023-09-30T10:04:46;9.15;;;2.45;;
51732;SDS011;39139;53.144;6.244;2023-09-30T10:07:22;11.00;;;2.85;;
51732;SDS011;39139;53.144;6.244;2023-09-30T10:09:52;8.00;;;2.28;;
51732;SDS011;39139;53.144;6.244;2023-09-30T10:12:22;10.43;;;2.35;;
51732;SDS011;39139;53.144;6.244;2023-09-30T10:14:49;8.77;;;2.35;;
51732;SDS011;39139;53.144;6.244;2023-09-30T10:17:15;15.65;;;2.35;;
51732;SDS011;39139;53.144;6.244;2023-09-30T10:22:32;10.80;;;2.70;;
51732;SDS011;39139;53.144;6.244;2023-09-30T10:24:58;9.85;;;1.80;;
51732;SDS011;39139;53.144;6.244;2023-09-30T10:30:26;7.53;;;2.10;;
51732;SDS011;39139;53.144;6.244;2023-09-30T10:35:16;5.50;;;2.05;;
51732;SDS011;39139;53.144;6.244;2023-09-30T10:37:43;11.23;;;2.45;;
51732;SDS011;39139;53.144;6.244;2023-09-30T10:40:10;6.85;;;2.42;;
51732;SDS011;39139;53.144;6.244;2023-09-30T10:42:54;10.35;;;1.90;;
51732;SDS011;39139;53.144;6.244;2023-09-30T10:50:59;9.45;;;2.50;;
51732;SDS011;39139;53.144;6.244;2023-09-30T10:53:29;9.57;;;2.08;;
51732;SDS011;39139;53.144;6.244;2023-09-30T10:55:59;9.35;;;3.25;;
51732;SDS011;39139;53.144;6.244;2023-09-30T10:58:41;6.85;;;1.60;;
51732;SDS011;39139;53.144;6.244;2023-09-30T11:01:14;9.88;;;1.80;;
51732;SDS011;39139;53.144;6.244;2023-09-30T11:03:42;9.73;;;1.63;;
51732;SDS011;39139;53.144;6.244;2023-09-30T11:06:12;11.75;;;1.83;;
51732;SDS011;39139;53.144;6.244;2023-09-30T11:09:15;9.95;;;2.20;;
51732;SDS011;39139;53.144;6.244;2023-09-30T11:11:41;6.38;;;1.40;;
51732;SDS011;39139;53.144;6.244;2023-09-30T11:14:28;9.30;;;2.15;;
51732;SDS011;39139;53.144;6.244;2023-09-30T11:16:55;11.73;;;2.17;;
51732;SDS011;39139;53.144;6.244;2023-09-30T11:19:23;9.20;;;2.10;;
51732;SDS011;39139;53.144;6.244;2023-09-30T11:21:50;10.88;;;1.77;;
51732;SDS011;39139;53.144;6.244;2023-09-30T11:24:17;10.95;;;2.45;;
51732;SDS011;39139;53.144;6.244;2023-09-30T11:26:43;10.55;;;2.17;;
51732;SDS011;39139;53.144;6.244;2023-09-30T11:29:11;8.55;;;1.88;;
51732;SDS011;39139;53.144;6.244;2023-09-30T11:31:41;11.10;;;1.98;;
51732;SDS011;39139;53.144;6.244;2023-09-30T11:34:12;11.40;;;2.00;;
51732;SDS011;39139;53.144;6.244;2023-09-30T11:36:39;13.13;;;1.88;;
51732;SDS011;39139;53.144;6.244;2023-09-30T11:39:09;9.45;;;1.95;;
51732;SDS011;39139;53.144;6.244;2023-09-30T11:41:45;6.75;;;1.33;;
51732;SDS011;39139;53.144;6.244;2023-09-30T11:44:11;10.70;;;1.63;;
51732;SDS011;39139;53.144;6.244;2023-09-30T11:49:52;12.75;;;2.08;;
51732;SDS011;39139;53.144;6.244;2023-09-30T11:52:25;8.95;;;2.15;;
51732;SDS011;39139;53.144;6.244;2023-09-30T11:54:51;10.88;;;1.52;;
51732;SDS011;39139;53.144;6.244;2023-09-30T11:57:18;12.35;;;2.28;;
51732;SDS011;39139;53.144;6.244;2023-09-30T11:59:45;9.95;;;2.60;;
51732;SDS011;39139;53.144;6.244;2023-09-30T12:02:12;8.60;;;2.55;;
51732;SDS011;39139;53.144;6.244;2023-09-30T12:04:42;9.25;;;1.65;;
51732;SDS011;39139;53.144;6.244;2023-09-30T12:07:09;6.55;;;1.45;;
51732;SDS011;39139;53.144;6.244;2023-09-30T12:09:35;9.88;;;2.10;;
51732;SDS011;39139;53.144;6.244;2023-09-30T12:12:02;8.98;;;2.00;;
51732;SDS011;39139;53.144;6.244;2023-09-30T12:14:29;8.93;;;1.88;;
51732;SDS011;39139;53.144;6.244;2023-09-30T12:16:56;10.60;;;1.98;;
51732;SDS011;39139;53.144;6.244;2023-09-30T12:19:22;7.05;;;1.75;;
51732;SDS011;39139;53.144;6.244;2023-09-30T12:21:48;10.75;;;1.70;;
51732;SDS011;39139;53.144;6.244;2023-09-30T12:24:17;5.88;;;1.85;;
51732;SDS011;39139;53.144;6.244;2023-09-30T12:26:47;6.35;;;1.65;;
51732;SDS011;39139;53.144;6.244;2023-09-30T12:29:20;6.75;;;1.73;;
51732;SDS011;39139;53.144;6.244;2023-09-30T12:31:50;9.10;;;1.77;;
51732;SDS011;39139;53.144;6.244;2023-09-30T12:34:17;7.53;;;1.70;;
51732;SDS011;39139;53.144;6.244;2023-09-30T12:36:43;7.47;;;1.60;;
51732;SDS011;39139;53.144;6.244;2023-09-30T12:39:09;7.22;;;1.70;;
51732;SDS011;39139;53.144;6.244;2023-09-30T12:41:36;4.80;;;1.40;;
51732;SDS011;39139;53.144;6.244;2023-09-30T12:44:02;4.07;;;1.80;;
51732;SDS011;39139;53.144;6.244;2023-09-30T12:46:28;5.30;;;1.48;;
51732;SDS011;39139;53.144;6.244;2023-09-30T12:48:54;8.93;;;2.15;;
51732;SDS011;39139;53.144;6.244;2023-09-30T12:51:20;5.50;;;1.30;;
51732;SDS011;39139;53.144;6.244;2023-09-30T12:53:45;11.60;;;1.83;;
51732;SDS011;39139;53.144;6.244;2023-09-30T12:56:11;6.63;;;1.98;;
51732;SDS011;39139;53.144;6.244;2023-09-30T12:58:37;4.53;;;1.65;;
51732;SDS011;39139;53.144;6.244;2023-09-30T13:01:04;6.68;;;1.77;;
51732;SDS011;39139;53.144;6.244;2023-09-30T13:03:31;4.10;;;1.70;;
51732;SDS011;39139;53.144;6.244;2023-09-30T13:05:57;9.65;;;1.65;;
51732;SDS011;39139;53.144;6.244;2023-09-30T13:08:23;8.75;;;1.75;;
51732;SDS011;39139;53.144;6.244;2023-09-30T13:10:48;8.82;;;1.80;;
51732;SDS011;39139;53.144;6.244;2023-09-30T13:13:15;7.45;;;1.63;;
51732;SDS011;39139;53.144;6.244;2023-09-30T13:15:41;5.28;;;1.65;;
51732;SDS011;39139;53.144;6.244;2023-09-30T13:18:07;5.00;;;1.42;;
51732;SDS011;39139;53.144;6.244;2023-09-30T13:20:33;6.95;;;1.48;;
51732;SDS011;39139;53.144;6.244;2023-09-30T13:22:58;6.00;;;1.80;;
51732;SDS011;39139;53.144;6.244;2023-09-30T13:25:24;8.10;;;1.75;;
51732;SDS011;39139;53.144;6.244;2023-09-30T13:27:51;11.23;;;1.83;;
51732;SDS011;39139;53.144;6.244;2023-09-30T13:30:17;4.10;;;1.60;;
51732;SDS011;39139;53.144;6.244;2023-09-30T13:32:43;6.50;;;1.35;;
51732;SDS011;39139;53.144;6.244;2023-09-30T13:35:09;9.10;;;1.67;;
51732;SDS011;39139;53.144;6.244;2023-09-30T13:37:35;7.60;;;1.73;;
51732;SDS011;39139;53.144;6.244;2023-09-30T13:40:02;7.47;;;1.50;;
51732;SDS011;39139;53.144;6.244;2023-09-30T13:42:36;8.27;;;1.40;;
51732;SDS011;39139;53.144;6.244;2023-09-30T13:45:02;4.50;;;0.95;;
51732;SDS011;39139;53.144;6.244;2023-09-30T13:47:28;7.03;;;1.75;;
51732;SDS011;39139;53.144;6.244;2023-09-30T13:49:54;6.18;;;1.58;;
51732;SDS011;39139;53.144;6.244;2023-09-30T13:52:20;5.32;;;1.55;;
51732;SDS011;39139;53.144;6.244;2023-09-30T13:54:46;7.75;;;1.45;;
51732;SDS011;39139;53.144;6.244;2023-09-30T13:57:12;3.53;;;1.60;;
51732;SDS011;39139;53.144;6.244;2023-09-30T13:59:39;5.35;;;1.33;;
51732;SDS011;39139;53.144;6.244;2023-09-30T14:02:04;7.63;;;1.80;;
51732;SDS011;39139;53.144;6.244;2023-09-30T14:04:31;10.13;;;1.92;;
51732;SDS011;39139;53.144;6.244;2023-09-30T14:06:57;7.00;;;1.60;;
51732;SDS011;39139;53.144;6.244;2023-09-30T14:09:26;5.97;;;1.65;;
51732;SDS011;39139;53.144;6.244;2023-09-30T14:11:52;7.72;;;1.90;;
51732;SDS011;39139;53.144;6.244;2023-09-30T14:14:18;6.72;;;1.80;;
51732;SDS011;39139;53.144;6.244;2023-09-30T14:16:44;7.55;;;1.33;;
51732;SDS011;39139;53.144;6.244;2023-09-30T14:19:09;6.60;;;1.90;;
51732;SDS011;39139;53.144;6.244;2023-09-30T14:21:35;4.57;;;1.67;;
51732;SDS011;39139;53.144;6.244;2023-09-30T14:24:01;6.60;;;1.67;;
51732;SDS011;39139;53.144;6.244;2023-09-30T14:26:29;5.82;;;1.50;;
51732;SDS011;39139;53.144;6.244;2023-09-30T14:28:55;7.13;;;1.55;;
51732;SDS011;39139;53.144;6.244;2023-09-30T14:31:20;4.82;;;1.73;;
51732;SDS011;39139;53.144;6.244;2023-09-30T14:33:46;8.27;;;1.45;;
51732;SDS011;39139;53.144;6.244;2023-09-30T14:36:12;7.20;;;1.70;;
51732;SDS011;39139;53.144;6.244;2023-09-30T14:38:38;7.40;;;1.70;;
51732;SDS011;39139;53.144;6.244;2023-09-30T14:41:07;7.63;;;1.35;;
51732;SDS011;39139;53.144;6.244;2023-09-30T14:43:33;7.07;;;1.60;;
51732;SDS011;39139;53.144;6.244;2023-09-30T14:46:02;7.70;;;1.85;;
51732;SDS011;39139;53.144;6.244;2023-09-30T14:48:28;5.57;;;1.90;;
51732;SDS011;39139;53.144;6.244;2023-09-30T14:50:54;6.13;;;1.60;;
51732;SDS011;39139;53.144;6.244;2023-09-30T14:53:21;8.57;;;1.60;;
51732;SDS011;39139;53.144;6.244;2023-09-30T14:55:46;5.70;;;1.73;;
51732;SDS011;39139;53.144;6.244;2023-09-30T14:58:12;7.90;;;1.75;;
51732;SDS011;39139;53.144;6.244;2023-09-30T15:00:38;7.00;;;1.33;;
51732;SDS011;39139;53.144;6.244;2023-09-30T15:03:03;5.55;;;1.45;;